sensor_id;sensor_type;location;lat;lon;timestamp;P1;durP1;ratioP1;P2;durP2;ratioP2
59978;SDS011;45839;44.882;20.650;2024-02-23T00:00:15;27.98;;;14.77;;
59978;SDS011;45839;44.882;20.650;2024-02-23T00:02:43;24.38;;;14.45;;
59978;SDS011;45839;44.882;20.650;2024-02-23T00:05:09;23.25;;;13.82;;
59978;SDS011;45839;44.882;20.650;2024-02-23T00:07:35;22.25;;;13.77;;
59978;SDS011;45839;44.882;20.650;2024-02-23T00:10:01;22.60;;;13.35;;
59978;SDS011;45839;44.882;20.650;2024-02-23T00:12:27;23.05;;;12.73;;
59978;SDS011;45839;44.882;20.650;2024-02-23T00:14:53;20.77;;;12.32;;
59978;SDS011;45839;44.882;20.650;2024-02-23T00:17:20;23.83;;;12.40;;
59978;SDS011;45839;44.882;20.650;2024-02-23T00:19:47;24.42;;;12.70;;
59978;SDS011;45839;44.882;20.650;2024-02-23T00:22:14;22.55;;;11.95;;
59978;SDS011;45839;44.882;20.650;2024-02-23T00:24:40;22.25;;;11.70;;
59978;SDS011;45839;44.882;20.650;2024-02-23T00:27:06;22.30;;;12.38;;
59978;SDS011;45839;44.882;20.650;2024-02-23T00:29:32;19.80;;;11.82;;
59978;SDS011;45839;44.882;20.650;2024-02-23T00:31:58;19.65;;;10.90;;
59978;SDS011;45839;44.882;20.650;2024-02-23T00:34:24;19.02;;;11.10;;
59978;SDS011;45839;44.882;20.650;2024-02-23T00:36:50;18.52;;;10.38;;
59978;SDS011;45839;44.882;20.650;2024-02-23T00:39:16;19.10;;;10.88;;
59978;SDS011;45839;44.882;20.650;2024-02-23T00:41:42;19.30;;;11.07;;
59978;SDS011;45839;44.882;20.650;2024-02-23T00:44:09;17.75;;;11.02;;
59978;SDS011;45839;44.882;20.650;2024-02-23T00:46:35;20.38;;;10.70;;
59978;SDS011;45839;44.882;20.650;2024-02-23T00:49:01;17.48;;;10.55;;
59978;SDS011;45839;44.882;20.650;2024-02-23T00:51:27;20.02;;;11.55;;
59978;SDS011;45839;44.882;20.650;2024-02-23T00:53:53;25.10;;;12.43;;
59978;SDS011;45839;44.882;20.650;2024-02-23T00:56:19;22.45;;;11.85;;
59978;SDS011;45839;44.882;20.650;2024-02-23T00:58:45;24.08;;;12.20;;
59978;SDS011;45839;44.882;20.650;2024-02-23T01:01:11;23.10;;;11.25;;
59978;SDS011;45839;44.882;20.650;2024-02-23T01:03:37;21.48;;;11.98;;
59978;SDS011;45839;44.882;20.650;2024-02-23T01:06:03;22.45;;;12.75;;
59978;SDS011;45839;44.882;20.650;2024-02-23T01:08:30;23.40;;;12.38;;
59978;SDS011;45839;44.882;20.650;2024-02-23T01:10:56;27.98;;;13.35;;
59978;SDS011;45839;44.882;20.650;2024-02-23T01:13:22;25.45;;;12.95;;
59978;SDS011;45839;44.882;20.650;2024-02-23T01:15:48;23.30;;;12.63;;
59978;SDS011;45839;44.882;20.650;2024-02-23T01:18:14;20.90;;;11.27;;
59978;SDS011;45839;44.882;20.650;2024-02-23T01:20:41;22.25;;;11.55;;
59978;SDS011;45839;44.882;20.650;2024-02-23T01:23:07;19.52;;;11.27;;
59978;SDS011;45839;44.882;20.650;2024-02-23T01:25:33;20.40;;;10.30;;
59978;SDS011;45839;44.882;20.650;2024-02-23T01:28:00;18.67;;;10.43;;
59978;SDS011;45839;44.882;20.650;2024-02-23T01:30:26;18.60;;;10.85;;
59978;SDS011;45839;44.882;20.650;2024-02-23T01:32:52;16.48;;;9.50;;
59978;SDS011;45839;44.882;20.650;2024-02-23T01:35:18;15.15;;;8.93;;
59978;SDS011;45839;44.882;20.650;2024-02-23T01:37:44;18.73;;;9.48;;
59978;SDS011;45839;44.882;20.650;2024-02-23T01:40:10;14.88;;;8.70;;
59978;SDS011;45839;44.882;20.650;2024-02-23T01:42:36;15.60;;;9.25;;
59978;SDS011;45839;44.882;20.650;2024-02-23T01:45:02;15.85;;;8.73;;
59978;SDS011;45839;44.882;20.650;2024-02-23T01:47:28;19.13;;;9.40;;
59978;SDS011;45839;44.882;20.650;2024-02-23T01:49:55;15.23;;;8.95;;
59978;SDS011;45839;44.882;20.650;2024-02-23T01:52:22;15.43;;;8.65;;
59978;SDS011;45839;44.882;20.650;2024-02-23T01:54:48;15.50;;;8.80;;
59978;SDS011;45839;44.882;20.650;2024-02-23T01:57:14;14.18;;;8.15;;
59978;SDS011;45839;44.882;20.650;2024-02-23T01:59:41;13.80;;;8.27;;
59978;SDS011;45839;44.882;20.650;2024-02-23T02:02:07;16.25;;;8.02;;
59978;SDS011;45839;44.882;20.650;2024-02-23T02:04:33;14.43;;;8.10;;
59978;SDS011;45839;44.882;20.650;2024-02-23T02:06:59;14.07;;;7.63;;
59978;SDS011;45839;44.882;20.650;2024-02-23T02:09:26;17.13;;;8.25;;
59978;SDS011;45839;44.882;20.650;2024-02-23T02:11:52;16.08;;;8.38;;
59978;SDS011;45839;44.882;20.650;2024-02-23T02:14:19;14.48;;;8.10;;
59978;SDS011;45839;44.882;20.650;2024-02-23T02:16:45;15.43;;;7.78;;
59978;SDS011;45839;44.882;20.650;2024-02-23T02:19:11;13.82;;;8.13;;
59978;SDS011;45839;44.882;20.650;2024-02-23T02:21:38;14.43;;;7.88;;
59978;SDS011;45839;44.882;20.650;2024-02-23T02:24:04;15.32;;;8.82;;
59978;SDS011;45839;44.882;20.650;2024-02-23T02:26:31;13.80;;;8.05;;
59978;SDS011;45839;44.882;20.650;2024-02-23T02:28:57;15.77;;;8.50;;
59978;SDS011;45839;44.882;20.650;2024-02-23T02:31:23;15.13;;;8.15;;
59978;SDS011;45839;44.882;20.650;2024-02-23T02:33:49;14.40;;;8.43;;
59978;SDS011;45839;44.882;20.650;2024-02-23T02:36:15;13.00;;;7.57;;
59978;SDS011;45839;44.882;20.650;2024-02-23T02:38:41;16.52;;;7.97;;
59978;SDS011;45839;44.882;20.650;2024-02-23T02:41:08;15.07;;;8.25;;
59978;SDS011;45839;44.882;20.650;2024-02-23T02:43:34;14.65;;;8.20;;
59978;SDS011;45839;44.882;20.650;2024-02-23T02:46:01;14.60;;;8.50;;
59978;SDS011;45839;44.882;20.650;2024-02-23T02:48:27;14.52;;;8.20;;
59978;SDS011;45839;44.882;20.650;2024-02-23T02:50:53;16.45;;;7.57;;
59978;SDS011;45839;44.882;20.650;2024-02-23T02:53:20;15.20;;;8.20;;
59978;SDS011;45839;44.882;20.650;2024-02-23T02:55:46;14.40;;;7.82;;
59978;SDS011;45839;44.882;20.650;2024-02-23T02:58:13;15.20;;;7.93;;
59978;SDS011;45839;44.882;20.650;2024-02-23T03:00:39;13.60;;;7.68;;
59978;SDS011;45839;44.882;20.650;2024-02-23T03:03:05;13.63;;;7.93;;
59978;SDS011;45839;44.882;20.650;2024-02-23T03:05:31;15.07;;;8.35;;
59978;SDS011;45839;44.882;20.650;2024-02-23T03:07:57;14.30;;;7.60;;
59978;SDS011;45839;44.882;20.650;2024-02-23T03:10:24;13.85;;;7.63;;
59978;SDS011;45839;44.882;20.650;2024-02-23T03:12:50;13.00;;;7.03;;
59978;SDS011;45839;44.882;20.650;2024-02-23T03:15:16;12.57;;;7.32;;
59978;SDS011;45839;44.882;20.650;2024-02-23T03:17:42;11.88;;;7.13;;
59978;SDS011;45839;44.882;20.650;2024-02-23T03:20:08;13.35;;;7.30;;
59978;SDS011;45839;44.882;20.650;2024-02-23T03:22:35;11.95;;;6.90;;
59978;SDS011;45839;44.882;20.650;2024-02-23T03:25:01;15.45;;;6.93;;
59978;SDS011;45839;44.882;20.650;2024-02-23T03:27:34;13.65;;;6.70;;
59978;SDS011;45839;44.882;20.650;2024-02-23T03:30:03;12.60;;;6.38;;
59978;SDS011;45839;44.882;20.650;2024-02-23T03:32:30;12.40;;;6.70;;
59978;SDS011;45839;44.882;20.650;2024-02-23T03:35:01;10.60;;;6.10;;
59978;SDS011;45839;44.882;20.650;2024-02-23T03:37:28;11.57;;;6.65;;
59978;SDS011;45839;44.882;20.650;2024-02-23T03:39:54;12.23;;;6.40;;
59978;SDS011;45839;44.882;20.650;2024-02-23T03:42:20;11.93;;;6.47;;
59978;SDS011;45839;44.882;20.650;2024-02-23T03:44:46;11.55;;;6.30;;
59978;SDS011;45839;44.882;20.650;2024-02-23T03:47:12;11.27;;;6.20;;
59978;SDS011;45839;44.882;20.650;2024-02-23T03:49:38;12.73;;;6.30;;
59978;SDS011;45839;44.882;20.650;2024-02-23T03:52:04;14.23;;;6.60;;
59978;SDS011;45839;44.882;20.650;2024-02-23T03:54:30;11.38;;;6.05;;
59978;SDS011;45839;44.882;20.650;2024-02-23T03:56:57;12.25;;;6.57;;
59978;SDS011;45839;44.882;20.650;2024-02-23T03:59:23;12.55;;;5.93;;
59978;SDS011;45839;44.882;20.650;2024-02-23T04:01:49;12.68;;;6.35;;
59978;SDS011;45839;44.882;20.650;2024-02-23T04:04:16;11.93;;;6.75;;
59978;SDS011;45839;44.882;20.650;2024-02-23T04:06:42;11.88;;;6.45;;
59978;SDS011;45839;44.882;20.650;2024-02-23T04:09:08;13.10;;;6.60;;
59978;SDS011;45839;44.882;20.650;2024-02-23T04:11:34;12.13;;;6.25;;
59978;SDS011;45839;44.882;20.650;2024-02-23T04:14:00;11.38;;;6.47;;
59978;SDS011;45839;44.882;20.650;2024-02-23T04:16:27;12.77;;;6.30;;
59978;SDS011;45839;44.882;20.650;2024-02-23T04:18:53;12.10;;;6.63;;
59978;SDS011;45839;44.882;20.650;2024-02-23T04:21:20;11.45;;;6.43;;
59978;SDS011;45839;44.882;20.650;2024-02-23T04:23:46;10.68;;;5.75;;
59978;SDS011;45839;44.882;20.650;2024-02-23T04:26:12;12.40;;;6.43;;
59978;SDS011;45839;44.882;20.650;2024-02-23T04:28:39;12.27;;;6.65;;
59978;SDS011;45839;44.882;20.650;2024-02-23T04:31:05;11.07;;;5.70;;
59978;SDS011;45839;44.882;20.650;2024-02-23T04:33:31;13.52;;;6.78;;
59978;SDS011;45839;44.882;20.650;2024-02-23T04:35:58;11.60;;;6.70;;
59978;SDS011;45839;44.882;20.650;2024-02-23T04:38:24;12.60;;;6.55;;
59978;SDS011;45839;44.882;20.650;2024-02-23T04:40:50;12.68;;;6.90;;
59978;SDS011;45839;44.882;20.650;2024-02-23T04:43:16;11.18;;;6.68;;
59978;SDS011;45839;44.882;20.650;2024-02-23T04:45:42;12.80;;;6.57;;
59978;SDS011;45839;44.882;20.650;2024-02-23T04:48:08;13.00;;;6.95;;
59978;SDS011;45839;44.882;20.650;2024-02-23T04:50:35;13.00;;;6.55;;
59978;SDS011;45839;44.882;20.650;2024-02-23T04:53:01;12.70;;;6.82;;
59978;SDS011;45839;44.882;20.650;2024-02-23T04:55:27;16.60;;;6.85;;
59978;SDS011;45839;44.882;20.650;2024-02-23T04:57:53;12.05;;;6.45;;
59978;SDS011;45839;44.882;20.650;2024-02-23T05:00:19;11.27;;;6.57;;
59978;SDS011;45839;44.882;20.650;2024-02-23T05:02:45;14.23;;;7.25;;
59978;SDS011;45839;44.882;20.650;2024-02-23T05:05:11;59.65;;;26.83;;
59978;SDS011;45839;44.882;20.650;2024-02-23T05:07:37;39.75;;;19.73;;
59978;SDS011;45839;44.882;20.650;2024-02-23T05:10:06;53.33;;;28.45;;
59978;SDS011;45839;44.882;20.650;2024-02-23T05:12:33;41.60;;;20.92;;
59978;SDS011;45839;44.882;20.650;2024-02-23T05:14:59;32.30;;;17.33;;
59978;SDS011;45839;44.882;20.650;2024-02-23T05:17:25;23.77;;;14.00;;
59978;SDS011;45839;44.882;20.650;2024-02-23T05:19:51;53.00;;;30.60;;
59978;SDS011;45839;44.882;20.650;2024-02-23T05:22:17;25.55;;;14.90;;
59978;SDS011;45839;44.882;20.650;2024-02-23T05:24:44;34.20;;;18.75;;
59978;SDS011;45839;44.882;20.650;2024-02-23T05:27:15;26.95;;;14.60;;
59978;SDS011;45839;44.882;20.650;2024-02-23T05:29:41;14.32;;;7.13;;
59978;SDS011;45839;44.882;20.650;2024-02-23T05:32:08;12.13;;;6.90;;
59978;SDS011;45839;44.882;20.650;2024-02-23T05:34:34;11.68;;;6.60;;
59978;SDS011;45839;44.882;20.650;2024-02-23T05:37:00;14.20;;;6.70;;
59978;SDS011;45839;44.882;20.650;2024-02-23T05:39:26;13.30;;;6.60;;
59978;SDS011;45839;44.882;20.650;2024-02-23T05:41:54;13.73;;;6.88;;
59978;SDS011;45839;44.882;20.650;2024-02-23T05:44:20;11.55;;;6.13;;
59978;SDS011;45839;44.882;20.650;2024-02-23T05:46:47;12.13;;;6.93;;
59978;SDS011;45839;44.882;20.650;2024-02-23T05:49:13;14.20;;;6.78;;
59978;SDS011;45839;44.882;20.650;2024-02-23T05:51:39;12.02;;;6.70;;
59978;SDS011;45839;44.882;20.650;2024-02-23T05:54:05;12.98;;;6.50;;
59978;SDS011;45839;44.882;20.650;2024-02-23T05:56:31;13.80;;;6.60;;
59978;SDS011;45839;44.882;20.650;2024-02-23T05:58:57;13.32;;;6.25;;
59978;SDS011;45839;44.882;20.650;2024-02-23T06:01:24;14.05;;;6.35;;
59978;SDS011;45839;44.882;20.650;2024-02-23T06:03:50;11.43;;;6.30;;
59978;SDS011;45839;44.882;20.650;2024-02-23T06:06:16;10.70;;;6.13;;
59978;SDS011;45839;44.882;20.650;2024-02-23T06:08:42;12.07;;;5.78;;
59978;SDS011;45839;44.882;20.650;2024-02-23T06:11:09;12.80;;;5.90;;
59978;SDS011;45839;44.882;20.650;2024-02-23T06:13:35;10.80;;;5.95;;
59978;SDS011;45839;44.882;20.650;2024-02-23T06:16:01;10.48;;;5.43;;
59978;SDS011;45839;44.882;20.650;2024-02-23T06:18:28;12.90;;;6.05;;
59978;SDS011;45839;44.882;20.650;2024-02-23T06:20:54;10.73;;;5.88;;
59978;SDS011;45839;44.882;20.650;2024-02-23T06:23:20;14.00;;;6.25;;
59978;SDS011;45839;44.882;20.650;2024-02-23T06:25:47;11.43;;;5.97;;
59978;SDS011;45839;44.882;20.650;2024-02-23T06:28:13;13.68;;;6.18;;
59978;SDS011;45839;44.882;20.650;2024-02-23T06:30:39;11.32;;;6.10;;
59978;SDS011;45839;44.882;20.650;2024-02-23T06:33:05;13.60;;;6.47;;
59978;SDS011;45839;44.882;20.650;2024-02-23T06:35:31;10.75;;;5.50;;
59978;SDS011;45839;44.882;20.650;2024-02-23T06:37:57;14.00;;;6.05;;
59978;SDS011;45839;44.882;20.650;2024-02-23T06:40:23;10.50;;;5.95;;
59978;SDS011;45839;44.882;20.650;2024-02-23T06:42:49;11.43;;;6.25;;
59978;SDS011;45839;44.882;20.650;2024-02-23T06:45:16;12.38;;;6.63;;
59978;SDS011;45839;44.882;20.650;2024-02-23T06:47:44;12.13;;;6.07;;
59978;SDS011;45839;44.882;20.650;2024-02-23T06:50:10;12.65;;;6.60;;
59978;SDS011;45839;44.882;20.650;2024-02-23T06:52:36;13.32;;;6.07;;
59978;SDS011;45839;44.882;20.650;2024-02-23T06:55:02;12.23;;;6.30;;
59978;SDS011;45839;44.882;20.650;2024-02-23T06:57:28;10.50;;;5.90;;
59978;SDS011;45839;44.882;20.650;2024-02-23T06:59:56;16.08;;;6.78;;
59978;SDS011;45839;44.882;20.650;2024-02-23T07:02:22;11.88;;;6.38;;
59978;SDS011;45839;44.882;20.650;2024-02-23T07:04:48;12.00;;;6.00;;
59978;SDS011;45839;44.882;20.650;2024-02-23T07:07:14;11.55;;;6.40;;
59978;SDS011;45839;44.882;20.650;2024-02-23T07:09:40;13.77;;;6.18;;
59978;SDS011;45839;44.882;20.650;2024-02-23T07:12:06;11.63;;;6.32;;
59978;SDS011;45839;44.882;20.650;2024-02-23T07:14:32;13.95;;;6.60;;
59978;SDS011;45839;44.882;20.650;2024-02-23T07:16:58;13.27;;;6.70;;
59978;SDS011;45839;44.882;20.650;2024-02-23T07:19:24;12.70;;;7.10;;
59978;SDS011;45839;44.882;20.650;2024-02-23T07:21:50;14.85;;;8.23;;
59978;SDS011;45839;44.882;20.650;2024-02-23T07:24:17;14.40;;;7.57;;
59978;SDS011;45839;44.882;20.650;2024-02-23T07:26:43;13.38;;;7.90;;
59978;SDS011;45839;44.882;20.650;2024-02-23T07:29:09;16.50;;;7.68;;
59978;SDS011;45839;44.882;20.650;2024-02-23T07:31:35;14.07;;;7.60;;
59978;SDS011;45839;44.882;20.650;2024-02-23T07:34:01;13.75;;;7.97;;
59978;SDS011;45839;44.882;20.650;2024-02-23T07:36:27;15.40;;;8.43;;
59978;SDS011;45839;44.882;20.650;2024-02-23T07:38:53;15.63;;;8.07;;
59978;SDS011;45839;44.882;20.650;2024-02-23T07:41:20;18.25;;;9.00;;
59978;SDS011;45839;44.882;20.650;2024-02-23T07:43:46;27.23;;;13.10;;
59978;SDS011;45839;44.882;20.650;2024-02-23T07:46:12;32.33;;;14.85;;
59978;SDS011;45839;44.882;20.650;2024-02-23T07:48:38;38.63;;;16.33;;
59978;SDS011;45839;44.882;20.650;2024-02-23T07:51:04;41.05;;;16.67;;
59978;SDS011;45839;44.882;20.650;2024-02-23T07:53:31;31.75;;;14.13;;
59978;SDS011;45839;44.882;20.650;2024-02-23T07:55:57;26.38;;;11.00;;
59978;SDS011;45839;44.882;20.650;2024-02-23T07:58:25;19.17;;;9.77;;
59978;SDS011;45839;44.882;20.650;2024-02-23T08:00:54;19.75;;;9.70;;
59978;SDS011;45839;44.882;20.650;2024-02-23T08:03:20;18.27;;;9.80;;
59978;SDS011;45839;44.882;20.650;2024-02-23T08:05:46;19.88;;;10.50;;
59978;SDS011;45839;44.882;20.650;2024-02-23T08:08:12;19.33;;;10.50;;
59978;SDS011;45839;44.882;20.650;2024-02-23T08:10:38;22.13;;;10.80;;
59978;SDS011;45839;44.882;20.650;2024-02-23T08:13:04;24.42;;;11.50;;
59978;SDS011;45839;44.882;20.650;2024-02-23T08:15:30;25.58;;;13.05;;
59978;SDS011;45839;44.882;20.650;2024-02-23T08:17:56;27.20;;;12.60;;
59978;SDS011;45839;44.882;20.650;2024-02-23T08:20:22;30.02;;;13.48;;
59978;SDS011;45839;44.882;20.650;2024-02-23T08:22:49;26.60;;;12.77;;
59978;SDS011;45839;44.882;20.650;2024-02-23T08:25:15;23.65;;;11.27;;
59978;SDS011;45839;44.882;20.650;2024-02-23T08:27:41;21.83;;;10.65;;
59978;SDS011;45839;44.882;20.650;2024-02-23T08:32:55;17.23;;;9.23;;
59978;SDS011;45839;44.882;20.650;2024-02-23T08:35:23;17.33;;;9.50;;
59978;SDS011;45839;44.882;20.650;2024-02-23T08:37:50;17.10;;;9.02;;
59978;SDS011;45839;44.882;20.650;2024-02-23T08:40:27;16.25;;;8.77;;
59978;SDS011;45839;44.882;20.650;2024-02-23T08:42:53;16.98;;;8.85;;
59978;SDS011;45839;44.882;20.650;2024-02-23T08:45:21;17.63;;;10.30;;
59978;SDS011;45839;44.882;20.650;2024-02-23T08:47:47;15.65;;;8.85;;
59978;SDS011;45839;44.882;20.650;2024-02-23T08:50:13;15.32;;;9.00;;
59978;SDS011;45839;44.882;20.650;2024-02-23T08:52:40;16.15;;;8.55;;
59978;SDS011;45839;44.882;20.650;2024-02-23T08:55:06;16.13;;;8.82;;
59978;SDS011;45839;44.882;20.650;2024-02-23T08:57:32;20.70;;;8.73;;
59978;SDS011;45839;44.882;20.650;2024-02-23T09:00:05;20.73;;;9.23;;
59978;SDS011;45839;44.882;20.650;2024-02-23T09:02:31;14.15;;;7.15;;
59978;SDS011;45839;44.882;20.650;2024-02-23T09:05:00;15.38;;;7.43;;
59978;SDS011;45839;44.882;20.650;2024-02-23T09:07:26;14.15;;;6.90;;
59978;SDS011;45839;44.882;20.650;2024-02-23T09:09:52;12.80;;;7.07;;
59978;SDS011;45839;44.882;20.650;2024-02-23T09:12:19;13.05;;;7.22;;
59978;SDS011;45839;44.882;20.650;2024-02-23T09:14:45;12.48;;;6.40;;
59978;SDS011;45839;44.882;20.650;2024-02-23T09:17:11;15.20;;;7.57;;
59978;SDS011;45839;44.882;20.650;2024-02-23T09:19:37;15.35;;;8.10;;
59978;SDS011;45839;44.882;20.650;2024-02-23T09:22:04;13.80;;;7.57;;
59978;SDS011;45839;44.882;20.650;2024-02-23T09:24:30;15.73;;;8.38;;
59978;SDS011;45839;44.882;20.650;2024-02-23T09:26:56;14.60;;;7.90;;
59978;SDS011;45839;44.882;20.650;2024-02-23T09:29:22;15.02;;;8.18;;
59978;SDS011;45839;44.882;20.650;2024-02-23T09:31:48;15.73;;;7.80;;
59978;SDS011;45839;44.882;20.650;2024-02-23T09:34:14;17.38;;;8.88;;
59978;SDS011;45839;44.882;20.650;2024-02-23T09:36:40;15.63;;;8.48;;
59978;SDS011;45839;44.882;20.650;2024-02-23T09:39:06;14.52;;;8.25;;
59978;SDS011;45839;44.882;20.650;2024-02-23T09:41:32;15.73;;;9.10;;
59978;SDS011;45839;44.882;20.650;2024-02-23T09:44:00;16.92;;;8.52;;
59978;SDS011;45839;44.882;20.650;2024-02-23T09:46:27;17.20;;;9.02;;
59978;SDS011;45839;44.882;20.650;2024-02-23T09:48:53;15.80;;;8.48;;
59978;SDS011;45839;44.882;20.650;2024-02-23T09:51:20;16.80;;;9.02;;
59978;SDS011;45839;44.882;20.650;2024-02-23T09:53:49;18.52;;;9.23;;
59978;SDS011;45839;44.882;20.650;2024-02-23T09:56:16;16.35;;;9.15;;
59978;SDS011;45839;44.882;20.650;2024-02-23T09:58:44;14.38;;;8.65;;
59978;SDS011;45839;44.882;20.650;2024-02-23T10:01:12;19.70;;;9.10;;
59978;SDS011;45839;44.882;20.650;2024-02-23T10:03:41;14.68;;;7.70;;
59978;SDS011;45839;44.882;20.650;2024-02-23T10:06:07;15.38;;;8.40;;
59978;SDS011;45839;44.882;20.650;2024-02-23T10:08:33;14.23;;;8.48;;
59978;SDS011;45839;44.882;20.650;2024-02-23T10:11:01;15.82;;;8.45;;
59978;SDS011;45839;44.882;20.650;2024-02-23T10:13:27;18.83;;;9.10;;
59978;SDS011;45839;44.882;20.650;2024-02-23T10:15:55;14.02;;;8.32;;
59978;SDS011;45839;44.882;20.650;2024-02-23T10:18:21;12.82;;;6.97;;
59978;SDS011;45839;44.882;20.650;2024-02-23T10:20:48;14.40;;;7.60;;
59978;SDS011;45839;44.882;20.650;2024-02-23T10:23:15;16.10;;;7.15;;
59978;SDS011;45839;44.882;20.650;2024-02-23T10:25:41;12.65;;;6.93;;
59978;SDS011;45839;44.882;20.650;2024-02-23T10:28:08;12.07;;;6.68;;
59978;SDS011;45839;44.882;20.650;2024-02-23T10:30:36;11.80;;;6.50;;
59978;SDS011;45839;44.882;20.650;2024-02-23T10:33:05;13.23;;;6.90;;
59978;SDS011;45839;44.882;20.650;2024-02-23T10:35:56;11.25;;;6.30;;
59978;SDS011;45839;44.882;20.650;2024-02-23T10:38:21;14.00;;;6.90;;
59978;SDS011;45839;44.882;20.650;2024-02-23T10:41:08;12.18;;;6.47;;
59978;SDS011;45839;44.882;20.650;2024-02-23T10:46:36;14.10;;;6.82;;
59978;SDS011;45839;44.882;20.650;2024-02-23T10:49:11;14.00;;;6.35;;
59978;SDS011;45839;44.882;20.650;2024-02-23T10:51:38;14.68;;;7.15;;
59978;SDS011;45839;44.882;20.650;2024-02-23T10:54:06;17.10;;;7.45;;
59978;SDS011;45839;44.882;20.650;2024-02-23T10:56:32;16.27;;;7.85;;
59978;SDS011;45839;44.882;20.650;2024-02-23T10:58:58;18.67;;;7.93;;
59978;SDS011;45839;44.882;20.650;2024-02-23T11:01:25;16.73;;;7.38;;
59978;SDS011;45839;44.882;20.650;2024-02-23T11:03:51;12.98;;;7.13;;
59978;SDS011;45839;44.882;20.650;2024-02-23T11:06:18;14.25;;;7.55;;
59978;SDS011;45839;44.882;20.650;2024-02-23T11:08:47;13.13;;;7.15;;
59978;SDS011;45839;44.882;20.650;2024-02-23T11:11:15;13.48;;;8.13;;
59978;SDS011;45839;44.882;20.650;2024-02-23T11:13:43;12.68;;;7.40;;
59978;SDS011;45839;44.882;20.650;2024-02-23T11:16:10;13.88;;;7.50;;
59978;SDS011;45839;44.882;20.650;2024-02-23T11:18:38;11.65;;;6.80;;
59978;SDS011;45839;44.882;20.650;2024-02-23T11:21:04;13.23;;;6.82;;
59978;SDS011;45839;44.882;20.650;2024-02-23T11:23:45;10.73;;;6.43;;
59978;SDS011;45839;44.882;20.650;2024-02-23T11:26:11;11.88;;;6.47;;
59978;SDS011;45839;44.882;20.650;2024-02-23T11:28:41;11.70;;;6.43;;
59978;SDS011;45839;44.882;20.650;2024-02-23T11:31:14;12.13;;;6.15;;
59978;SDS011;45839;44.882;20.650;2024-02-23T11:33:47;12.98;;;6.28;;
59978;SDS011;45839;44.882;20.650;2024-02-23T11:38:39;11.40;;;5.93;;
59978;SDS011;45839;44.882;20.650;2024-02-23T11:41:06;11.90;;;6.10;;
59978;SDS011;45839;44.882;20.650;2024-02-23T11:43:33;11.15;;;5.80;;
59978;SDS011;45839;44.882;20.650;2024-02-23T11:46:00;12.48;;;5.65;;
59978;SDS011;45839;44.882;20.650;2024-02-23T11:48:26;13.00;;;5.78;;
59978;SDS011;45839;44.882;20.650;2024-02-23T11:50:52;10.55;;;5.40;;
59978;SDS011;45839;44.882;20.650;2024-02-23T11:53:18;12.50;;;5.90;;
59978;SDS011;45839;44.882;20.650;2024-02-23T11:55:47;16.02;;;5.82;;
59978;SDS011;45839;44.882;20.650;2024-02-23T11:58:13;11.07;;;6.00;;
59978;SDS011;45839;44.882;20.650;2024-02-23T12:00:39;10.50;;;5.10;;
59978;SDS011;45839;44.882;20.650;2024-02-23T12:03:05;12.43;;;5.95;;
59978;SDS011;45839;44.882;20.650;2024-02-23T12:05:32;13.68;;;5.15;;
59978;SDS011;45839;44.882;20.650;2024-02-23T12:07:58;11.00;;;5.47;;
59978;SDS011;45839;44.882;20.650;2024-02-23T12:10:24;9.40;;;4.90;;
59978;SDS011;45839;44.882;20.650;2024-02-23T12:12:51;13.07;;;5.88;;
59978;SDS011;45839;44.882;20.650;2024-02-23T12:15:17;11.13;;;5.32;;
59978;SDS011;45839;44.882;20.650;2024-02-23T12:17:50;12.98;;;6.38;;
59978;SDS011;45839;44.882;20.650;2024-02-23T12:20:16;11.10;;;5.38;;
59978;SDS011;45839;44.882;20.650;2024-02-23T12:22:42;10.07;;;4.80;;
59978;SDS011;45839;44.882;20.650;2024-02-23T12:25:08;11.68;;;5.97;;
59978;SDS011;45839;44.882;20.650;2024-02-23T12:27:34;13.15;;;5.47;;
59978;SDS011;45839;44.882;20.650;2024-02-23T12:30:01;9.90;;;4.93;;
59978;SDS011;45839;44.882;20.650;2024-02-23T12:32:27;11.77;;;5.10;;
59978;SDS011;45839;44.882;20.650;2024-02-23T12:34:53;10.57;;;5.22;;
59978;SDS011;45839;44.882;20.650;2024-02-23T12:37:20;12.23;;;5.43;;
59978;SDS011;45839;44.882;20.650;2024-02-23T12:39:50;12.07;;;5.50;;
59978;SDS011;45839;44.882;20.650;2024-02-23T12:42:16;12.88;;;5.68;;
59978;SDS011;45839;44.882;20.650;2024-02-23T12:44:43;11.68;;;5.53;;
59978;SDS011;45839;44.882;20.650;2024-02-23T12:47:09;11.40;;;5.22;;
59978;SDS011;45839;44.882;20.650;2024-02-23T12:49:35;8.68;;;4.05;;
59978;SDS011;45839;44.882;20.650;2024-02-23T12:52:01;9.80;;;4.68;;
59978;SDS011;45839;44.882;20.650;2024-02-23T12:54:27;10.18;;;4.72;;
59978;SDS011;45839;44.882;20.650;2024-02-23T12:56:53;8.95;;;4.85;;
59978;SDS011;45839;44.882;20.650;2024-02-23T12:59:19;11.55;;;4.30;;
59978;SDS011;45839;44.882;20.650;2024-02-23T13:01:45;7.75;;;3.95;;
59978;SDS011;45839;44.882;20.650;2024-02-23T13:04:11;8.55;;;3.80;;
59978;SDS011;45839;44.882;20.650;2024-02-23T13:06:39;8.02;;;3.90;;
59978;SDS011;45839;44.882;20.650;2024-02-23T13:09:05;10.05;;;3.95;;
59978;SDS011;45839;44.882;20.650;2024-02-23T13:11:33;8.48;;;4.03;;
59978;SDS011;45839;44.882;20.650;2024-02-23T13:14:00;10.25;;;4.32;;
59978;SDS011;45839;44.882;20.650;2024-02-23T13:16:27;11.07;;;3.90;;
59978;SDS011;45839;44.882;20.650;2024-02-23T13:18:53;8.38;;;4.68;;
59978;SDS011;45839;44.882;20.650;2024-02-23T13:21:19;9.57;;;5.00;;
59978;SDS011;45839;44.882;20.650;2024-02-23T13:23:45;10.05;;;4.75;;
59978;SDS011;45839;44.882;20.650;2024-02-23T13:26:11;8.18;;;4.10;;
59978;SDS011;45839;44.882;20.650;2024-02-23T13:28:39;8.98;;;4.40;;
59978;SDS011;45839;44.882;20.650;2024-02-23T13:31:06;12.43;;;4.95;;
59978;SDS011;45839;44.882;20.650;2024-02-23T13:33:32;7.88;;;3.90;;
59978;SDS011;45839;44.882;20.650;2024-02-23T13:35:58;8.55;;;4.13;;
59978;SDS011;45839;44.882;20.650;2024-02-23T13:38:27;8.32;;;4.20;;
59978;SDS011;45839;44.882;20.650;2024-02-23T13:40:53;9.10;;;4.28;;
59978;SDS011;45839;44.882;20.650;2024-02-23T13:43:19;10.93;;;4.57;;
59978;SDS011;45839;44.882;20.650;2024-02-23T13:45:49;18.20;;;7.95;;
59978;SDS011;45839;44.882;20.650;2024-02-23T13:48:16;13.23;;;7.70;;
59978;SDS011;45839;44.882;20.650;2024-02-23T13:50:43;8.40;;;4.47;;
59978;SDS011;45839;44.882;20.650;2024-02-23T13:53:31;9.73;;;4.50;;
59978;SDS011;45839;44.882;20.650;2024-02-23T13:55:58;9.43;;;4.45;;
59978;SDS011;45839;44.882;20.650;2024-02-23T13:58:25;11.38;;;4.78;;
59978;SDS011;45839;44.882;20.650;2024-02-23T14:00:52;11.05;;;4.85;;
59978;SDS011;45839;44.882;20.650;2024-02-23T14:03:19;8.88;;;4.68;;
59978;SDS011;45839;44.882;20.650;2024-02-23T14:08:40;9.73;;;5.00;;
59978;SDS011;45839;44.882;20.650;2024-02-23T14:11:07;9.27;;;4.30;;
59978;SDS011;45839;44.882;20.650;2024-02-23T14:13:34;8.95;;;4.05;;
59978;SDS011;45839;44.882;20.650;2024-02-23T14:16:00;10.73;;;4.72;;
59978;SDS011;45839;44.882;20.650;2024-02-23T14:18:28;11.35;;;5.28;;
59978;SDS011;45839;44.882;20.650;2024-02-23T14:20:57;11.13;;;5.00;;
59978;SDS011;45839;44.882;20.650;2024-02-23T14:23:23;12.77;;;5.97;;
59978;SDS011;45839;44.882;20.650;2024-02-23T14:25:49;11.10;;;4.90;;
59978;SDS011;45839;44.882;20.650;2024-02-23T14:28:16;10.90;;;5.40;;